createdAt,value
2019-02-12T00:02:24.826Z,0.70
2019-02-12T00:04:54.976Z,0.80
2019-02-12T00:07:25.374Z,0.80
2019-02-12T00:09:55.601Z,0.90
2019-02-12T00:12:26.212Z,0.90
2019-02-12T00:14:57.335Z,0.90
2019-02-12T00:17:27.506Z,0.90
2019-02-12T00:19:57.675Z,0.90
2019-02-12T00:22:27.879Z,0.90
2019-02-12T00:24:58.076Z,0.90
2019-02-12T00:27:28.222Z,0.80
2019-02-12T00:29:58.368Z,0.70
2019-02-12T00:32:28.529Z,0.70
2019-02-12T00:34:58.699Z,0.70
2019-02-12T00:37:28.877Z,0.80
2019-02-12T00:39:59.031Z,0.90
2019-02-12T00:42:29.227Z,0.90
2019-02-12T00:44:59.442Z,1.00
2019-02-12T00:47:29.710Z,1.00
2019-02-12T00:49:59.968Z,1.00
2019-02-12T00:52:30.120Z,0.90
2019-02-12T00:55:00.304Z,1.00
2019-02-12T00:57:30.529Z,1.00
2019-02-12T01:00:00.696Z,1.10
2019-02-12T01:02:30.836Z,1.10
2019-02-12T01:05:01.043Z,1.10
2019-02-12T01:07:32.701Z,1.10
2019-02-12T01:10:02.859Z,1.10
2019-02-12T01:12:33.013Z,1.10
2019-02-12T01:15:03.711Z,1.10
2019-02-12T01:17:34.959Z,1.10
2019-02-12T01:20:06.119Z,1.10
2019-02-12T01:22:36.298Z,1.10
2019-02-12T01:25:06.951Z,1.00
2019-02-12T01:27:37.161Z,1.00
2019-02-12T01:30:10.864Z,1.00
2019-02-12T01:32:41.092Z,1.00
2019-02-12T01:35:11.268Z,1.00
2019-02-12T01:37:41.449Z,1.00
2019-02-12T01:40:13.318Z,1.00
2019-02-12T01:42:43.591Z,1.00
2019-02-12T01:45:14.320Z,1.00
2019-02-12T01:47:44.502Z,0.90
2019-02-12T01:50:15.039Z,1.00
2019-02-12T01:52:45.255Z,1.00
2019-02-12T01:55:15.415Z,0.90
2019-02-12T01:57:46.870Z,0.90
2019-02-12T02:00:17.019Z,1.00
2019-02-12T02:02:47.242Z,1.00
2019-02-12T02:05:17.443Z,0.90
2019-02-12T02:07:47.596Z,0.90
2019-02-12T02:10:18.551Z,0.90
2019-02-12T02:12:48.684Z,1.00
2019-02-12T02:15:18.872Z,0.90
2019-02-12T02:17:49.011Z,1.00
2019-02-12T02:20:19.243Z,1.00
2019-02-12T02:22:49.514Z,0.90
2019-02-12T02:25:19.692Z,0.90
2019-02-12T02:27:49.827Z,0.90
2019-02-12T02:30:19.993Z,0.80
2019-02-12T02:32:50.143Z,0.90
2019-02-12T02:35:20.311Z,0.80
2019-02-12T02:37:50.434Z,0.80
2019-02-12T02:40:20.613Z,0.80
2019-02-12T02:42:50.779Z,0.70
2019-02-12T02:45:20.946Z,0.70
2019-02-12T02:47:51.140Z,0.70
2019-02-12T02:50:21.300Z,0.70
2019-02-12T02:52:51.488Z,0.70
2019-02-12T02:55:21.630Z,0.70
2019-02-12T02:57:51.815Z,0.70
2019-02-12T03:00:22.028Z,0.60
2019-02-12T03:02:52.212Z,0.60
2019-02-12T03:05:22.391Z,0.60
2019-02-12T03:07:53.458Z,0.60
2019-02-12T03:10:23.655Z,0.60
2019-02-12T03:12:53.831Z,0.60
2019-02-12T03:15:24.013Z,0.60
2019-02-12T03:17:54.203Z,0.60
2019-02-12T03:20:24.393Z,0.60
2019-02-12T03:22:54.608Z,0.60
2019-02-12T03:25:24.751Z,0.60
2019-02-12T03:27:54.935Z,0.60
2019-02-12T03:30:25.128Z,0.50
2019-02-12T03:32:55.374Z,0.60
2019-02-12T03:35:25.581Z,0.60
2019-02-12T03:37:55.765Z,0.50
2019-02-12T03:40:25.928Z,0.50
2019-02-12T03:42:56.125Z,0.50
2019-02-12T03:45:26.288Z,0.40
2019-02-12T03:47:56.473Z,0.40
2019-02-12T03:50:26.627Z,0.40
2019-02-12T03:52:56.794Z,0.40
2019-02-12T03:55:26.976Z,0.30
2019-02-12T03:57:57.132Z,0.30
2019-02-12T04:00:27.316Z,0.30
2019-02-12T04:03:06.863Z,0.30
2019-02-12T04:05:38.043Z,0.30
2019-02-12T04:08:09.451Z,0.30
2019-02-12T04:10:39.592Z,0.20
2019-02-12T04:13:09.761Z,0.20
2019-02-12T04:15:39.902Z,0.20
2019-02-12T04:18:10.109Z,0.20
2019-02-12T04:20:40.294Z,0.20
2019-02-12T04:23:10.462Z,0.10
2019-02-12T04:25:40.627Z,0.20
2019-02-12T04:28:10.772Z,0.10
2019-02-12T04:30:40.960Z,0.10
2019-02-12T04:33:11.157Z,0.10
2019-02-12T04:35:41.320Z,0.20
2019-02-12T04:38:11.487Z,0.20
2019-02-12T04:40:41.651Z,0.10
2019-02-12T04:43:11.813Z,0.10
2019-02-12T04:45:42.071Z,0.10
2019-02-12T04:48:12.224Z,0.10
2019-02-12T04:50:42.396Z,0.10
2019-02-12T04:53:12.569Z,0.10
2019-02-12T04:55:42.744Z,0.10
2019-02-12T04:58:12.896Z,0.00
2019-02-12T05:00:43.103Z,0.00
2019-02-12T05:03:13.323Z,0.00
2019-02-12T05:05:43.548Z,0.10
2019-02-12T05:08:13.787Z,0.10
2019-02-12T05:10:48.987Z,0.00
2019-02-12T05:13:19.193Z,0.10
2019-02-12T05:15:49.375Z,0.10
2019-02-12T05:18:19.563Z,0.10
2019-02-12T05:20:49.751Z,0.20
2019-02-12T05:23:19.987Z,0.20
2019-02-12T05:25:50.187Z,0.20
2019-02-12T05:28:20.387Z,0.20
2019-02-12T05:30:50.696Z,0.20
2019-02-12T05:33:20.936Z,0.20
2019-02-12T05:35:51.104Z,0.30
2019-02-12T05:38:21.346Z,0.30
2019-02-12T05:40:51.495Z,0.40
2019-02-12T05:43:21.687Z,0.30
2019-02-12T05:45:51.857Z,0.30
2019-02-12T05:48:22.056Z,0.30
2019-02-12T05:50:52.248Z,0.20
2019-02-12T05:53:22.408Z,0.20
2019-02-12T05:55:53.555Z,0.20
2019-02-12T05:58:23.808Z,0.30
2019-02-12T06:00:54.003Z,0.30
2019-02-12T06:03:24.147Z,0.30
2019-02-12T06:05:54.337Z,0.40
2019-02-12T06:08:24.496Z,0.40
2019-02-12T06:10:54.707Z,0.40
2019-02-12T06:13:25.848Z,0.40
2019-02-12T06:15:56.039Z,0.40
2019-02-12T06:18:26.216Z,0.30
2019-02-12T06:20:56.394Z,0.40
2019-02-12T06:23:26.679Z,0.40
2019-02-12T06:25:56.849Z,0.40
2019-02-12T06:28:27.026Z,0.40
2019-02-12T06:30:57.227Z,0.40
2019-02-12T06:33:27.407Z,0.40
2019-02-12T06:35:57.569Z,0.50
2019-02-12T06:38:27.701Z,0.50
2019-02-12T06:40:57.853Z,0.50
2019-02-12T06:43:28.019Z,0.60
2019-02-12T06:45:59.484Z,0.60
2019-02-12T06:48:29.688Z,0.60
2019-02-12T06:50:59.856Z,0.70
2019-02-12T06:53:30.046Z,0.60
2019-02-12T06:56:00.227Z,0.70
2019-02-12T06:58:30.702Z,0.70
2019-02-12T07:01:00.948Z,0.70
2019-02-12T07:04:00.525Z,0.70
2019-02-12T07:06:52.063Z,0.70
2019-02-12T07:09:42.295Z,0.80
2019-02-12T07:13:03.265Z,0.80
2019-02-12T07:15:44.136Z,0.80
2019-02-12T07:18:47.279Z,0.90
2019-02-12T07:22:07.847Z,1.00
2019-02-12T07:25:29.269Z,1.00
2019-02-12T07:28:41.009Z,1.10
2019-02-12T07:31:53.856Z,1.20
2019-02-12T07:34:44.735Z,1.20
2019-02-12T07:38:07.857Z,1.30
2019-02-12T07:41:04.342Z,1.30
2019-02-12T07:44:20.741Z,1.30
2019-02-12T07:47:35.967Z,1.30
2019-02-12T07:50:43.010Z,1.40
2019-02-12T07:53:31.191Z,1.40
2019-02-12T07:56:24.719Z,1.40
2019-02-12T07:59:36.378Z,1.40
2019-02-12T08:02:34.617Z,1.50
2019-02-12T08:05:41.559Z,1.50
2019-02-12T08:08:56.102Z,1.60
2019-02-12T08:11:57.591Z,1.60
2019-02-12T08:14:54.729Z,1.60
2019-02-12T08:17:53.028Z,1.70
2019-02-12T08:21:12.447Z,1.70
2019-02-12T08:24:38.441Z,1.70
2019-02-12T08:27:30.240Z,1.80
2019-02-12T08:30:25.243Z,1.90
2019-02-12T08:33:35.393Z,2.00
2019-02-12T08:36:27.651Z,2.20
2019-02-12T08:39:28.422Z,2.30
2019-02-12T08:42:48.103Z,2.40
2019-02-12T08:46:02.950Z,2.60
2019-02-12T08:49:19.007Z,2.80
2019-02-12T08:52:17.171Z,2.80
2019-02-12T08:55:43.203Z,2.80
2019-02-12T08:58:48.575Z,2.70
2019-02-12T09:01:56.155Z,2.60
2019-02-12T09:04:53.052Z,2.70
2019-02-12T09:07:34.908Z,2.60
2019-02-12T09:10:53.714Z,2.60
2019-02-12T09:14:00.328Z,2.60
2019-02-12T09:17:03.296Z,2.60
2019-02-12T09:19:45.140Z,2.60
2019-02-12T09:23:00.991Z,2.70
2019-02-12T09:25:55.564Z,2.80
2019-02-12T09:28:54.646Z,2.80
2019-02-12T09:32:08.956Z,2.80
2019-02-12T09:34:53.760Z,2.90
2019-02-12T09:38:06.625Z,3.00
2019-02-12T09:40:52.073Z,2.90
2019-02-12T09:43:51.236Z,2.90
2019-02-12T09:46:31.825Z,2.90
2019-02-12T09:49:32.648Z,3.00
2019-02-12T09:52:44.525Z,3.10
2019-02-12T09:55:30.314Z,3.30
2019-02-12T09:58:48.699Z,3.20
2019-02-12T10:02:02.997Z,3.20
2019-02-12T10:04:44.352Z,3.30
2019-02-12T10:07:36.679Z,3.20
2019-02-12T10:10:36.311Z,3.30
2019-02-12T10:13:28.595Z,3.50
2019-02-12T10:16:27.119Z,3.40
2019-02-12T10:19:34.672Z,3.50
2019-02-12T10:22:47.509Z,3.50
2019-02-12T10:25:31.109Z,3.70
2019-02-12T10:28:56.376Z,3.70
2019-02-12T10:31:44.493Z,3.80
2019-02-12T10:34:14.771Z,3.80
2019-02-12T10:36:44.999Z,3.90
2019-02-12T10:39:15.698Z,4.10
2019-02-12T10:41:45.858Z,4.50
2019-02-12T10:44:15.999Z,4.70
2019-02-12T10:46:46.132Z,4.90
2019-02-12T10:49:17.262Z,4.70
2019-02-12T10:51:47.416Z,4.60
2019-02-12T10:54:17.593Z,4.70
2019-02-12T10:56:47.766Z,4.60
2019-02-12T10:59:17.940Z,4.60
2019-02-12T11:01:48.087Z,4.60
2019-02-12T11:04:18.247Z,4.80
2019-02-12T11:06:48.415Z,5.00
2019-02-12T11:09:18.575Z,5.00
2019-02-12T11:11:48.716Z,4.90
2019-02-12T11:14:18.868Z,5.10
2019-02-12T11:16:49.080Z,5.00
2019-02-12T11:19:19.302Z,5.20
2019-02-12T11:21:49.456Z,5.30
2019-02-12T11:24:19.655Z,5.10
2019-02-12T11:26:49.837Z,5.10
2019-02-12T11:29:19.986Z,5.10
2019-02-12T11:31:50.141Z,5.10
2019-02-12T11:34:20.411Z,5.40
2019-02-12T11:36:50.600Z,5.70
2019-02-12T11:39:20.767Z,5.80
2019-02-12T11:41:50.923Z,5.90
2019-02-12T11:44:21.117Z,6.10
2019-02-12T11:46:51.282Z,6.20
2019-02-12T11:49:21.484Z,6.30
2019-02-12T11:51:51.635Z,6.20
2019-02-12T11:54:21.808Z,6.10
2019-02-12T11:56:51.932Z,6.50
2019-02-12T11:59:22.101Z,6.60
2019-02-12T12:01:52.260Z,6.90
2019-02-12T12:04:22.412Z,7.00
2019-02-12T12:06:52.595Z,7.10
2019-02-12T12:09:22.735Z,6.90
2019-02-12T12:11:52.922Z,6.70
2019-02-12T12:14:23.083Z,7.20
2019-02-12T12:16:56.146Z,7.80
2019-02-12T12:19:26.282Z,7.60
2019-02-12T12:21:56.543Z,7.40
2019-02-12T12:24:26.733Z,7.80
2019-02-12T12:26:56.951Z,8.20
2019-02-12T12:29:27.125Z,8.80
2019-02-12T12:31:57.269Z,8.50
2019-02-12T12:34:27.433Z,8.70
2019-02-12T12:36:57.609Z,9.00
2019-02-12T12:39:27.780Z,9.90
2019-02-12T12:41:57.931Z,9.90
2019-02-12T12:44:28.103Z,10.10
2019-02-12T12:46:58.293Z,9.60
2019-02-12T12:49:28.463Z,9.70
2019-02-12T12:51:59.231Z,9.80
2019-02-12T12:54:29.387Z,9.20
2019-02-12T12:56:59.586Z,9.20
2019-02-12T12:59:29.803Z,9.00
2019-02-12T13:02:00.040Z,8.40
2019-02-12T13:04:30.202Z,8.20
2019-02-12T13:07:00.366Z,7.70
2019-02-12T13:09:30.560Z,7.90
2019-02-12T13:12:00.715Z,7.90
2019-02-12T13:14:31.169Z,9.00
2019-02-12T13:17:01.367Z,9.20
2019-02-12T13:19:31.508Z,9.40
2019-02-12T13:22:01.731Z,9.30
2019-02-12T13:24:31.927Z,9.70
2019-02-12T13:27:02.089Z,9.10
2019-02-12T13:29:32.338Z,8.90
2019-02-12T13:32:02.547Z,8.80
2019-02-12T13:34:32.729Z,8.70
2019-02-12T13:37:02.881Z,9.30
2019-02-12T13:39:33.056Z,10.10
2019-02-12T13:42:03.317Z,10.00
2019-02-12T13:44:33.460Z,9.90
2019-02-12T13:47:03.614Z,9.40
2019-02-12T13:49:33.880Z,9.80
2019-02-12T13:52:04.091Z,9.60
2019-02-12T13:54:34.258Z,9.50
2019-02-12T13:57:04.528Z,10.10
2019-02-12T13:59:34.696Z,10.00
2019-02-12T14:02:04.870Z,9.50
2019-02-12T14:04:35.023Z,8.80
2019-02-12T14:07:05.223Z,8.60
2019-02-12T14:09:35.402Z,8.50
2019-02-12T14:12:05.588Z,8.70
2019-02-12T14:14:37.371Z,8.90
2019-02-12T14:17:07.506Z,8.90
2019-02-12T14:19:37.681Z,8.50
2019-02-12T14:22:07.864Z,8.30
2019-02-12T14:24:38.198Z,8.50
2019-02-12T14:27:08.368Z,8.30
2019-02-12T14:29:38.507Z,8.20
2019-02-12T14:32:08.711Z,8.10
2019-02-12T14:34:38.863Z,7.80
2019-02-12T14:37:09.044Z,7.70
2019-02-12T14:39:39.210Z,7.80
2019-02-12T14:42:09.397Z,7.80
2019-02-12T14:44:39.608Z,7.50
2019-02-12T14:47:09.788Z,7.30
2019-02-12T14:49:39.982Z,7.20
2019-02-12T14:52:10.128Z,7.10
2019-02-12T14:54:40.372Z,7.00
2019-02-12T14:57:15.078Z,6.90
2019-02-12T14:59:45.220Z,6.90
2019-02-12T15:02:15.391Z,6.90
2019-02-12T15:04:45.661Z,7.00
2019-02-12T15:07:15.812Z,7.00
2019-02-12T15:09:45.997Z,7.00
2019-02-12T15:12:16.144Z,7.10
2019-02-12T15:14:46.327Z,7.10
2019-02-12T15:17:16.484Z,7.20
2019-02-12T15:19:46.661Z,7.20
2019-02-12T15:22:16.813Z,7.20
2019-02-12T15:24:46.971Z,7.20
2019-02-12T15:27:17.112Z,7.10
2019-02-12T15:29:47.287Z,7.00
2019-02-12T15:32:17.440Z,6.90
2019-02-12T15:34:48.593Z,6.90
2019-02-12T15:37:18.751Z,6.90
2019-02-12T15:39:48.905Z,6.80
2019-02-12T15:42:19.032Z,6.80
2019-02-12T15:44:49.191Z,6.80
2019-02-12T15:47:19.496Z,6.80
2019-02-12T15:49:49.723Z,6.80
2019-02-12T15:52:19.916Z,6.80
2019-02-12T15:54:50.063Z,6.80
2019-02-12T15:57:20.263Z,6.80
2019-02-12T15:59:52.134Z,6.70
2019-02-12T16:02:22.303Z,6.70
2019-02-12T16:04:52.480Z,6.60
2019-02-12T16:07:24.341Z,6.50
2019-02-12T16:09:55.005Z,6.40
2019-02-12T16:12:28.301Z,6.30
2019-02-12T16:14:59.761Z,6.20
2019-02-12T16:17:30.183Z,6.10
2019-02-12T16:20:00.354Z,6.10
2019-02-12T16:22:30.478Z,6.00
2019-02-12T16:25:00.721Z,5.90
2019-02-12T16:27:30.928Z,5.80
2019-02-12T16:30:01.273Z,5.80
2019-02-12T16:32:31.769Z,5.80
2019-02-12T16:35:02.039Z,5.60
2019-02-12T16:37:32.228Z,5.60
2019-02-12T16:40:02.438Z,5.50
2019-02-12T16:42:32.702Z,5.40
2019-02-12T16:45:03.655Z,5.30
2019-02-12T16:47:33.956Z,5.30
2019-02-12T16:50:04.308Z,5.30
2019-02-12T16:52:34.531Z,5.30
2019-02-12T16:55:04.804Z,5.40
2019-02-12T16:57:35.988Z,5.50
2019-02-12T17:00:09.424Z,5.60
2019-02-12T17:02:40.799Z,5.70
2019-02-12T17:05:12.000Z,5.70
2019-02-12T17:07:43.139Z,5.70
2019-02-12T17:10:13.390Z,5.70
2019-02-12T17:12:43.613Z,5.60
2019-02-12T17:15:13.866Z,5.70
2019-02-12T17:17:44.126Z,5.70
2019-02-12T17:20:16.262Z,5.70
2019-02-12T17:22:46.534Z,5.70
2019-02-12T17:25:17.603Z,5.70
2019-02-12T17:27:48.137Z,5.70
2019-02-12T17:30:18.512Z,5.60
2019-02-12T17:32:48.803Z,5.50
2019-02-12T17:35:20.148Z,5.50
2019-02-12T17:37:50.342Z,5.40
2019-02-12T17:40:20.559Z,5.20
2019-02-12T17:42:50.736Z,5.10
2019-02-12T17:45:21.072Z,5.20
2019-02-12T17:47:51.330Z,5.20
2019-02-12T17:50:21.986Z,5.20
2019-02-12T17:52:52.285Z,5.20
2019-02-12T17:55:22.513Z,5.30
2019-02-12T17:57:52.765Z,5.30
2019-02-12T18:00:25.612Z,5.30
2019-02-12T18:02:55.835Z,5.30
2019-02-12T18:05:26.048Z,5.30
2019-02-12T18:07:56.235Z,5.30
2019-02-12T18:10:26.420Z,5.30
2019-02-12T18:12:56.622Z,5.30
2019-02-12T18:15:26.788Z,5.30
2019-02-12T18:17:57.022Z,5.20
2019-02-12T18:20:27.215Z,5.10
2019-02-12T18:22:57.415Z,5.10
2019-02-12T18:25:27.625Z,5.00
2019-02-12T18:27:57.807Z,5.00
2019-02-12T18:30:28.026Z,4.90
2019-02-12T18:32:58.233Z,4.90
2019-02-12T18:35:28.445Z,4.90
2019-02-12T18:37:58.744Z,4.90
2019-02-12T18:40:28.980Z,4.90
2019-02-12T18:42:59.196Z,4.80
2019-02-12T18:45:29.360Z,4.70
2019-02-12T18:47:59.615Z,4.70
2019-02-12T18:50:30.926Z,4.70
2019-02-12T18:53:01.093Z,4.60
2019-02-12T18:55:31.339Z,4.50
2019-02-12T18:58:01.526Z,4.50
2019-02-12T19:00:31.760Z,4.50
2019-02-12T19:03:01.983Z,4.50
2019-02-12T19:05:32.172Z,4.50
2019-02-12T19:08:02.369Z,4.50
2019-02-12T19:10:32.588Z,4.50
2019-02-12T19:13:02.796Z,4.40
2019-02-12T19:15:33.087Z,4.40
2019-02-12T19:18:11.757Z,4.20
2019-02-12T19:20:42.372Z,4.10
2019-02-12T19:23:12.846Z,4.10
2019-02-12T19:25:43.137Z,4.00
2019-02-12T19:28:13.376Z,3.90
2019-02-12T19:30:43.802Z,3.80
2019-02-12T19:33:14.109Z,3.70
2019-02-12T19:35:44.498Z,3.70
2019-02-12T19:38:14.684Z,3.70
2019-02-12T19:40:44.872Z,3.70
2019-02-12T19:43:15.536Z,3.70
2019-02-12T19:45:45.861Z,3.60
2019-02-12T19:48:16.056Z,3.70
2019-02-12T19:50:46.314Z,3.60
2019-02-12T19:53:16.556Z,3.60
2019-02-12T19:55:46.776Z,3.50
2019-02-12T19:58:17.003Z,3.50
2019-02-12T20:00:47.264Z,3.30
2019-02-12T20:03:17.440Z,3.20
2019-02-12T20:05:47.692Z,3.20
2019-02-12T20:08:17.916Z,3.20
2019-02-12T20:10:48.319Z,3.10
2019-02-12T20:13:18.609Z,3.00
2019-02-12T20:15:48.814Z,3.20
2019-02-12T20:18:19.028Z,3.30
2019-02-12T20:20:49.228Z,3.30
2019-02-12T20:23:19.479Z,3.30
2019-02-12T20:25:49.704Z,3.50
2019-02-12T20:28:20.001Z,3.60
2019-02-12T20:30:50.244Z,3.70
2019-02-12T20:33:20.467Z,3.70
2019-02-12T20:35:50.672Z,3.70
2019-02-12T20:38:20.875Z,3.70
2019-02-12T20:40:51.019Z,3.80
2019-02-12T20:43:21.612Z,3.80
2019-02-12T20:45:51.857Z,3.70
2019-02-12T20:48:22.045Z,3.70
2019-02-12T20:50:52.298Z,3.60
2019-02-12T20:53:22.521Z,3.60
2019-02-12T20:55:52.713Z,3.70
2019-02-12T20:58:22.900Z,3.70
2019-02-12T21:00:53.110Z,3.60
2019-02-12T21:03:23.327Z,3.50
2019-02-12T21:05:53.563Z,3.60
2019-02-12T21:08:23.731Z,3.60
2019-02-12T21:10:54.029Z,3.60
2019-02-12T21:13:24.191Z,3.70
2019-02-12T21:15:54.388Z,3.80
2019-02-12T21:18:24.606Z,3.80
2019-02-12T21:20:54.825Z,3.70
2019-02-12T21:23:25.940Z,3.60
2019-02-12T21:25:56.201Z,3.60
2019-02-12T21:28:26.422Z,3.50
2019-02-12T21:30:56.678Z,3.50
2019-02-12T21:33:26.948Z,3.50
2019-02-12T21:35:57.132Z,3.50
2019-02-12T21:38:27.381Z,3.40
2019-02-12T21:40:57.596Z,3.40
2019-02-12T21:43:28.854Z,3.40
2019-02-12T21:45:59.065Z,3.40
2019-02-12T21:48:32.307Z,3.40
2019-02-12T21:51:01.240Z,3.30
2019-02-12T21:53:31.476Z,3.30
2019-02-12T21:56:01.700Z,3.30
2019-02-12T21:58:31.879Z,3.30
2019-02-12T22:01:02.108Z,3.30
2019-02-12T22:03:32.366Z,3.20
2019-02-12T22:06:02.589Z,3.10
2019-02-12T22:08:32.812Z,3.20
2019-02-12T22:11:03.065Z,3.20
2019-02-12T22:13:33.363Z,3.20
2019-02-12T22:16:03.571Z,3.20
2019-02-12T22:18:33.739Z,3.30
2019-02-12T22:21:03.923Z,3.30
2019-02-12T22:23:34.093Z,3.30
2019-02-12T22:26:04.276Z,3.30
2019-02-12T22:28:34.449Z,3.30
2019-02-12T22:31:04.644Z,3.30
2019-02-12T22:33:34.839Z,3.20
2019-02-12T22:36:05.025Z,3.20
2019-02-12T22:38:35.236Z,3.10
2019-02-12T22:41:05.442Z,3.10
2019-02-12T22:43:35.620Z,3.20
2019-02-12T22:46:05.829Z,3.20
2019-02-12T22:48:36.012Z,3.10
2019-02-12T22:51:06.337Z,3.10
2019-02-12T22:53:36.507Z,3.10
2019-02-12T22:56:06.711Z,3.10
2019-02-12T22:58:36.866Z,3.00
2019-02-12T23:01:09.988Z,3.00
2019-02-12T23:03:40.124Z,3.00
2019-02-12T23:06:10.345Z,3.00
2019-02-12T23:08:40.505Z,3.00
2019-02-12T23:11:10.779Z,3.00
2019-02-12T23:13:40.915Z,3.00
2019-02-12T23:16:11.091Z,2.80
2019-02-12T23:18:41.252Z,2.70
2019-02-12T23:21:11.424Z,2.70
2019-02-12T23:23:41.597Z,2.80
2019-02-12T23:26:11.808Z,2.80
2019-02-12T23:28:42.941Z,2.80
2019-02-12T23:31:13.071Z,2.80
2019-02-12T23:33:44.207Z,2.90
2019-02-12T23:36:14.341Z,2.90
2019-02-12T23:38:44.524Z,3.00
2019-02-12T23:41:14.679Z,3.00
2019-02-12T23:43:44.835Z,3.10
2019-02-12T23:46:14.999Z,3.10
2019-02-12T23:48:45.164Z,3.00
2019-02-12T23:51:15.352Z,3.00
2019-02-12T23:53:45.489Z,3.00
2019-02-12T23:56:15.639Z,3.00
2019-02-12T23:58:45.792Z,3.00
